Terminal Aerodrome Forecast
Issued by NWS

Home | Current Version | Previous Version | Text Only | Print | Product List | Glossary On
Versions: 1 2 3 4 5 6 7 8 9 10 11 12 13 14 15 16 17 18 19 20 21 22 23 24 25 26
000
FTUS43 KDMX 071530 AAA
TAFMCW
TAF AMD
KMCW 071530Z 0716/0812 29017G26KT P6SM SCT016
      TEMPO 0716/0720 BKN016
     FM080000 29016G22KT P6SM SCT030 BKN100
     FM080400 29018G26KT P6SM BKN030=

USA.gov is the U.S. government's official web portal to all federal, state and local government web resources and services.